createdAt,value
2019-02-26T00:02:02.721Z,89.20
2019-02-26T00:04:36.398Z,89.90
2019-02-26T00:07:07.131Z,88.60
2019-02-26T00:09:37.926Z,89.10
2019-02-26T00:12:08.664Z,90.00
2019-02-26T00:14:39.560Z,90.50
2019-02-26T00:17:12.843Z,90.60
2019-02-26T00:19:42.857Z,91.30
2019-02-26T00:22:15.531Z,91.80
2019-02-26T00:24:46.661Z,91.80
2019-02-26T00:27:18.402Z,92.20
2019-02-26T00:29:50.827Z,91.60
2019-02-26T00:32:21.491Z,91.50
2019-02-26T00:34:53.225Z,91.20
2019-02-26T00:37:26.262Z,90.90
2019-02-26T00:39:57.138Z,90.80
2019-02-26T00:42:28.758Z,91.40
2019-02-26T00:45:02.879Z,91.50
2019-02-26T00:47:34.445Z,90.70
2019-02-26T00:50:07.309Z,90.70
2019-02-26T00:52:39.215Z,89.80
2019-02-26T00:55:09.928Z,91.20
2019-02-26T00:57:43.045Z,90.40
2019-02-26T01:00:14.715Z,90.70
2019-02-26T01:02:46.676Z,90.20
2019-02-26T01:05:17.402Z,90.00
2019-02-26T01:07:50.246Z,92.00
2019-02-26T01:10:21.678Z,91.60
2019-02-26T01:12:53.311Z,92.10
2019-02-26T01:15:24.162Z,92.50
2019-02-26T01:17:56.620Z,92.30
2019-02-26T01:20:29.665Z,92.50
2019-02-26T01:23:00.041Z,92.70
2019-02-26T01:25:30.803Z,91.30
2019-02-26T01:28:01.706Z,91.00
2019-02-26T01:30:35.677Z,90.60
2019-02-26T01:33:05.581Z,90.40
2019-02-26T01:35:37.858Z,90.50
2019-02-26T01:38:08.721Z,90.00
2019-02-26T01:40:43.643Z,89.40
2019-02-26T01:43:11.956Z,88.60
2019-02-26T01:45:44.003Z,89.80
2019-02-26T01:48:18.373Z,90.10
2019-02-26T01:50:47.750Z,89.60
2019-02-26T01:53:19.783Z,90.00
2019-02-26T01:55:50.882Z,90.30
2019-02-26T01:58:21.573Z,90.30
2019-02-26T02:00:55.266Z,91.50
2019-02-26T02:03:25.498Z,91.90
2019-02-26T02:05:58.534Z,91.20
2019-02-26T02:08:29.417Z,91.20
2019-02-26T02:11:02.409Z,92.00
2019-02-26T02:13:33.112Z,92.10
2019-02-26T02:16:06.720Z,91.60
2019-02-26T02:18:37.503Z,92.10
2019-02-26T02:21:08.045Z,92.70
2019-02-26T02:23:38.832Z,92.20
2019-02-26T02:26:11.644Z,92.30
2019-02-26T02:28:42.545Z,91.70
2019-02-26T02:31:13.339Z,92.20
2019-02-26T02:33:44.134Z,92.40
2019-02-26T02:36:17.072Z,92.20
2019-02-26T02:38:47.553Z,91.70
2019-02-26T02:41:18.395Z,91.70
2019-02-26T02:43:49.401Z,91.50
2019-02-26T02:46:20.155Z,91.90
2019-02-26T02:48:51.047Z,91.90
2019-02-26T02:51:22.018Z,91.90
2019-02-26T02:53:54.145Z,92.40
2019-02-26T02:56:25.161Z,91.60
2019-02-26T02:58:56.179Z,92.30
2019-02-26T03:01:28.642Z,92.10
2019-02-26T03:04:01.130Z,92.00
2019-02-26T03:06:36.010Z,91.50
2019-02-26T03:09:14.502Z,92.60
2019-02-26T03:11:46.561Z,92.10
2019-02-26T03:14:18.669Z,93.00
2019-02-26T03:16:52.970Z,92.30
2019-02-26T03:19:23.084Z,92.30
2019-02-26T03:21:55.000Z,92.40
2019-02-26T03:24:28.390Z,92.60
2019-02-26T03:26:58.194Z,92.20
2019-02-26T03:29:28.985Z,91.80
2019-02-26T03:31:59.789Z,92.30
2019-02-26T03:34:30.571Z,92.20
2019-02-26T03:37:03.879Z,91.90
2019-02-26T03:39:34.012Z,92.00
2019-02-26T03:42:04.865Z,92.00
2019-02-26T03:44:35.750Z,92.00
2019-02-26T03:47:06.547Z,91.80
2019-02-26T03:49:41.764Z,91.60
2019-02-26T03:52:09.830Z,92.80
2019-02-26T03:54:42.771Z,93.10
2019-02-26T03:57:14.219Z,93.50
2019-02-26T04:02:18.139Z,93.00
2019-02-26T04:04:51.744Z,93.70
2019-02-26T04:07:22.855Z,93.30
2019-02-26T04:09:55.745Z,93.40
2019-02-26T04:12:25.877Z,93.10
2019-02-26T04:14:56.627Z,92.90
2019-02-26T04:17:28.677Z,92.80
2019-02-26T04:20:02.683Z,93.00
2019-02-26T04:22:34.197Z,93.50
2019-02-26T04:25:22.265Z,93.20
2019-02-26T04:28:08.170Z,92.90
2019-02-26T04:30:59.109Z,93.10
2019-02-26T04:34:08.673Z,92.50
2019-02-26T04:37:27.365Z,92.40
2019-02-26T04:40:30.504Z,92.30
2019-02-26T04:43:25.571Z,92.50
2019-02-26T04:46:44.462Z,92.00
2019-02-26T04:49:15.150Z,92.30
2019-02-26T04:51:47.957Z,92.20
2019-02-26T04:54:23.811Z,92.00
2019-02-26T04:56:51.125Z,92.10
2019-02-26T04:59:21.913Z,92.70
2019-02-26T05:01:55.109Z,92.80
2019-02-26T05:04:25.044Z,92.80
2019-02-26T05:06:55.953Z,92.80
2019-02-26T05:09:27.413Z,93.10
2019-02-26T05:11:59.042Z,93.20
2019-02-26T05:14:29.732Z,93.00
2019-02-26T05:17:00.506Z,92.70
2019-02-26T05:19:31.086Z,92.90
2019-02-26T05:22:04.345Z,93.10
2019-02-26T05:24:34.383Z,93.30
2019-02-26T05:27:15.496Z,93.50
2019-02-26T05:29:48.935Z,93.30
2019-02-26T05:32:21.250Z,93.80
2019-02-26T05:34:51.659Z,93.00
2019-02-26T05:37:22.429Z,92.70
2019-02-26T05:39:54.624Z,93.10
2019-02-26T05:42:25.637Z,93.30
2019-02-26T05:44:59.671Z,93.40
2019-02-26T05:47:28.660Z,93.60
2019-02-26T05:50:00.009Z,93.60
2019-02-26T05:52:33.227Z,93.50
2019-02-26T05:55:04.479Z,93.80
2019-02-26T05:57:35.371Z,93.70
2019-02-26T06:00:08.426Z,93.40
2019-02-26T06:02:42.005Z,93.10
2019-02-26T06:05:11.966Z,92.80
2019-02-26T06:07:43.760Z,92.30
2019-02-26T06:10:14.516Z,92.70
2019-02-26T06:12:46.685Z,92.60
2019-02-26T06:15:17.614Z,92.40
2019-02-26T06:17:50.845Z,92.40
2019-02-26T06:20:23.561Z,92.20
2019-02-26T06:22:55.399Z,92.20
2019-02-26T06:25:26.187Z,92.90
2019-02-26T06:27:57.164Z,93.10
2019-02-26T06:30:27.973Z,93.00
2019-02-26T06:33:02.050Z,92.10
2019-02-26T06:35:31.904Z,92.10
2019-02-26T06:38:04.515Z,91.90
2019-02-26T06:40:36.949Z,92.10
2019-02-26T06:43:08.627Z,92.30
2019-02-26T06:45:41.128Z,92.30
2019-02-26T06:48:14.625Z,92.40
2019-02-26T06:50:44.355Z,92.20
2019-02-26T06:53:18.151Z,92.00
2019-02-26T06:55:47.579Z,91.70
2019-02-26T06:58:28.659Z,91.60
2019-02-26T07:01:00.317Z,92.00
2019-02-26T07:03:31.007Z,92.00
2019-02-26T07:06:04.764Z,92.20
2019-02-26T07:08:34.319Z,92.10
2019-02-26T07:11:07.121Z,92.10
2019-02-26T07:13:39.195Z,92.10
2019-02-26T07:16:09.937Z,91.70
2019-02-26T07:18:40.699Z,91.00
2019-02-26T07:21:11.498Z,91.00
2019-02-26T07:23:42.270Z,90.80
2019-02-26T07:26:13.623Z,90.50
2019-02-26T07:28:46.951Z,90.40
2019-02-26T07:31:17.716Z,90.70
2019-02-26T07:33:48.483Z,90.60
2019-02-26T07:36:21.186Z,90.30
2019-02-26T07:38:56.034Z,90.30
2019-02-26T07:41:26.224Z,90.40
2019-02-26T07:43:57.563Z,90.20
2019-02-26T07:46:28.387Z,90.00
2019-02-26T07:48:59.986Z,89.90
2019-02-26T07:51:33.826Z,89.40
2019-02-26T07:54:04.279Z,89.70
2019-02-26T07:56:34.964Z,89.70
2019-02-26T07:59:07.828Z,89.50
2019-02-26T08:01:39.883Z,88.50
2019-02-26T08:04:11.641Z,89.20
2019-02-26T08:06:43.127Z,87.80
2019-02-26T08:09:16.458Z,86.90
2019-02-26T08:11:49.074Z,87.90
2019-02-26T08:14:20.893Z,88.90
2019-02-26T08:16:53.671Z,88.00
2019-02-26T08:19:23.795Z,87.50
2019-02-26T08:21:54.944Z,86.10
2019-02-26T08:24:26.820Z,85.90
2019-02-26T08:26:57.602Z,86.20
2019-02-26T08:29:30.805Z,86.40
2019-02-26T08:32:02.013Z,86.90
2019-02-26T08:34:33.019Z,86.80
2019-02-26T08:37:03.825Z,86.60
2019-02-26T08:39:35.697Z,87.00
2019-02-26T08:42:08.575Z,85.70
2019-02-26T08:44:39.347Z,86.30
2019-02-26T08:47:11.990Z,85.30
2019-02-26T08:49:43.521Z,85.70
2019-02-26T08:52:16.888Z,85.10
2019-02-26T08:54:47.080Z,85.60
2019-02-26T08:57:17.987Z,85.90
2019-02-26T08:59:49.754Z,85.00
2019-02-26T09:02:22.195Z,85.00
2019-02-26T09:04:53.000Z,84.80
2019-02-26T09:07:26.168Z,84.40
2019-02-26T09:09:57.579Z,84.20
2019-02-26T09:12:28.540Z,84.20
2019-02-26T09:14:59.378Z,84.80
2019-02-26T09:17:32.538Z,84.10
2019-02-26T09:20:09.402Z,84.10
2019-02-26T09:22:36.073Z,83.70
2019-02-26T09:25:06.920Z,82.70
2019-02-26T09:27:42.689Z,82.00
2019-02-26T09:30:15.909Z,83.00
2019-02-26T09:32:45.956Z,82.80
2019-02-26T09:35:20.396Z,82.10
2019-02-26T09:37:52.791Z,82.20
2019-02-26T09:40:23.640Z,80.80
2019-02-26T09:42:57.269Z,81.80
2019-02-26T09:45:29.970Z,81.10
2019-02-26T09:48:01.202Z,81.00
2019-02-26T09:50:33.092Z,80.10
2019-02-26T09:53:03.891Z,79.40
2019-02-26T09:55:34.667Z,78.80
2019-02-26T09:58:05.366Z,79.20
2019-02-26T10:00:36.252Z,78.90
2019-02-26T10:03:08.407Z,78.90
2019-02-26T10:05:39.431Z,77.30
2019-02-26T10:08:10.237Z,78.90
2019-02-26T10:10:41.018Z,78.30
2019-02-26T10:13:11.487Z,77.90
2019-02-26T10:15:44.809Z,76.50
2019-02-26T10:18:15.830Z,77.20
2019-02-26T10:20:47.547Z,77.40
2019-02-26T10:23:19.766Z,75.70
2019-02-26T10:25:55.555Z,75.80
2019-02-26T10:28:24.396Z,75.40
2019-02-26T10:30:56.989Z,76.50
2019-02-26T10:33:27.832Z,76.50
2019-02-26T10:35:58.680Z,76.40
2019-02-26T10:38:31.416Z,75.50
2019-02-26T10:41:02.050Z,75.60
2019-02-26T10:43:32.800Z,74.40
2019-02-26T10:46:03.524Z,75.30
2019-02-26T10:48:34.261Z,75.20
2019-02-26T10:51:06.456Z,75.00
2019-02-26T10:53:37.549Z,74.50
2019-02-26T10:56:08.260Z,74.50
2019-02-26T10:58:39.027Z,73.80
2019-02-26T11:01:10.010Z,74.40
2019-02-26T11:03:43.794Z,73.20
2019-02-26T11:06:16.798Z,70.80
2019-02-26T11:08:47.537Z,69.60
2019-02-26T11:11:19.117Z,69.50
2019-02-26T11:13:51.943Z,69.30
2019-02-26T11:16:25.192Z,68.20
2019-02-26T11:18:54.920Z,67.20
2019-02-26T11:21:25.699Z,66.10
2019-02-26T11:23:58.380Z,68.70
2019-02-26T11:26:30.103Z,67.50
2019-02-26T11:29:01.245Z,68.40
2019-02-26T11:31:31.916Z,68.00
2019-02-26T11:34:05.889Z,70.70
2019-02-26T11:36:38.005Z,68.20
2019-02-26T11:39:09.258Z,68.20
2019-02-26T11:41:41.120Z,66.20
2019-02-26T11:44:12.682Z,69.40
2019-02-26T11:46:46.222Z,67.20
2019-02-26T11:49:19.391Z,66.70
2019-02-26T11:51:50.317Z,67.70
2019-02-26T11:54:21.060Z,69.00
2019-02-26T11:56:52.512Z,68.80
2019-02-26T11:59:23.443Z,68.50
2019-02-26T12:01:56.380Z,69.90
2019-02-26T12:04:26.897Z,67.60
2019-02-26T12:06:58.619Z,67.90
2019-02-26T12:09:32.943Z,68.70
2019-02-26T12:12:03.485Z,69.00
2019-02-26T12:14:37.462Z,69.10
2019-02-26T12:17:07.572Z,70.00
2019-02-26T12:19:38.449Z,68.50
2019-02-26T12:22:09.204Z,68.70
2019-02-26T12:24:39.900Z,68.30
2019-02-26T12:27:16.250Z,66.00
2019-02-26T12:29:45.407Z,66.00
2019-02-26T12:32:17.146Z,66.80
2019-02-26T12:34:51.290Z,65.80
2019-02-26T12:37:21.427Z,66.00
2019-02-26T12:39:54.803Z,65.70
2019-02-26T12:42:24.681Z,65.70
2019-02-26T12:44:57.548Z,65.90
2019-02-26T12:47:27.854Z,67.20
2019-02-26T12:50:01.141Z,66.20
2019-02-26T12:52:31.008Z,66.00
2019-02-26T12:55:04.136Z,66.90
2019-02-26T12:57:34.151Z,66.30
2019-02-26T13:00:06.888Z,65.60
2019-02-26T13:02:39.982Z,66.00
2019-02-26T13:05:13.474Z,66.50
2019-02-26T13:07:42.944Z,66.90
2019-02-26T13:10:15.920Z,66.90
2019-02-26T13:12:49.677Z,66.80
2019-02-26T13:15:19.507Z,67.30
2019-02-26T13:17:54.329Z,66.80
2019-02-26T13:20:23.150Z,66.30
2019-02-26T13:22:56.947Z,66.40
2019-02-26T13:25:27.063Z,66.80
2019-02-26T13:27:57.991Z,67.30
2019-02-26T13:30:28.773Z,67.30
2019-02-26T13:33:00.844Z,67.20
2019-02-26T13:35:32.203Z,68.00
2019-02-26T13:38:02.765Z,67.30
2019-02-26T13:40:38.515Z,67.30
2019-02-26T13:43:08.494Z,67.80
2019-02-26T13:45:39.109Z,68.30
2019-02-26T13:48:09.885Z,68.80
2019-02-26T13:50:40.689Z,68.60
2019-02-26T13:53:11.328Z,69.10
2019-02-26T13:55:42.111Z,69.50
2019-02-26T13:58:12.912Z,68.80
2019-02-26T14:00:44.543Z,68.50
2019-02-26T14:03:15.642Z,67.80
2019-02-26T14:05:46.200Z,68.00
2019-02-26T14:08:17.074Z,68.20
2019-02-26T14:10:47.865Z,69.10
2019-02-26T14:13:18.663Z,67.90
2019-02-26T14:15:49.324Z,68.50
2019-02-26T14:18:20.209Z,69.00
2019-02-26T14:20:51.002Z,68.70
2019-02-26T14:23:21.780Z,68.80
2019-02-26T14:25:52.405Z,68.30
2019-02-26T14:28:23.157Z,69.20
2019-02-26T14:30:53.961Z,69.10
2019-02-26T14:33:24.699Z,69.30
2019-02-26T14:35:55.637Z,69.90
2019-02-26T14:38:26.420Z,69.70
2019-02-26T14:40:57.172Z,70.30
2019-02-26T14:43:27.951Z,71.50
2019-02-26T14:45:59.059Z,71.10
2019-02-26T14:48:29.933Z,69.30
2019-02-26T14:51:00.536Z,71.30
2019-02-26T14:53:31.375Z,69.80
2019-02-26T14:56:02.088Z,71.00
2019-02-26T14:58:32.887Z,70.00
2019-02-26T15:01:03.975Z,70.70
2019-02-26T15:03:34.980Z,70.60
2019-02-26T15:06:05.788Z,70.50
2019-02-26T15:08:36.501Z,70.40
2019-02-26T15:11:07.200Z,70.70
2019-02-26T15:13:38.160Z,72.00
2019-02-26T15:16:08.756Z,71.80
2019-02-26T15:18:39.691Z,71.90
2019-02-26T15:21:10.345Z,72.60
2019-02-26T15:23:41.071Z,73.10
2019-02-26T15:26:11.940Z,73.80
2019-02-26T15:28:43.024Z,73.90
2019-02-26T15:36:14.174Z,73.30
2019-02-26T15:38:44.869Z,73.90
2019-02-26T15:41:15.672Z,74.20
2019-02-26T15:43:46.431Z,74.10
2019-02-26T15:46:17.522Z,74.60
2019-02-26T15:48:48.290Z,74.60
2019-02-26T15:51:20.118Z,74.20
2019-02-26T15:53:55.298Z,74.50
2019-02-26T15:56:23.931Z,74.50
2019-02-26T15:58:54.729Z,74.70
2019-02-26T16:01:25.600Z,74.90
2019-02-26T16:03:56.403Z,75.10
2019-02-26T16:06:27.272Z,75.20
2019-02-26T16:08:57.960Z,75.40
2019-02-26T16:16:30.510Z,74.20
2019-02-26T16:19:01.344Z,75.70
2019-02-26T16:21:32.198Z,76.00
2019-02-26T16:24:02.800Z,76.10
2019-02-26T16:26:33.555Z,76.40
2019-02-26T16:29:04.276Z,76.90
2019-02-26T16:31:35.044Z,78.30
2019-02-26T16:34:05.947Z,79.60
2019-02-26T16:36:36.697Z,79.70
2019-02-26T16:39:07.612Z,79.60
2019-02-26T16:41:40.028Z,79.00
2019-02-26T16:44:10.579Z,78.60
2019-02-26T16:46:42.130Z,78.40
2019-02-26T16:49:13.615Z,79.00
2019-02-26T16:51:44.402Z,79.40
2019-02-26T16:54:15.163Z,78.60
2019-02-26T16:56:45.956Z,78.20
2019-02-26T16:59:16.724Z,77.90
2019-02-26T17:01:47.502Z,78.20
2019-02-26T17:04:18.292Z,78.90
2019-02-26T17:06:51.536Z,80.80
2019-02-26T17:09:22.425Z,80.70
2019-02-26T17:11:53.236Z,81.00
2019-02-26T17:14:24.208Z,81.60
2019-02-26T17:16:55.176Z,82.70
2019-02-26T17:19:25.987Z,82.20
2019-02-26T17:21:56.843Z,81.50
2019-02-26T17:24:27.439Z,80.00
2019-02-26T17:26:58.166Z,80.40
2019-02-26T17:29:29.135Z,80.40
2019-02-26T17:32:04.025Z,80.70
2019-02-26T17:34:32.311Z,82.00
2019-02-26T17:37:03.162Z,81.50
2019-02-26T17:39:33.763Z,81.00
2019-02-26T17:42:04.541Z,82.80
2019-02-26T17:44:35.191Z,84.20
2019-02-26T17:47:06.028Z,82.50
2019-02-26T17:49:36.911Z,83.90
2019-02-26T17:52:07.609Z,84.40
2019-02-26T17:54:39.406Z,85.70
2019-02-26T17:57:10.188Z,86.40
2019-02-26T17:59:40.904Z,83.70
2019-02-26T18:02:11.650Z,83.80
2019-02-26T18:04:42.339Z,83.20
2019-02-26T18:07:13.164Z,84.70
2019-02-26T18:09:44.016Z,82.00
2019-02-26T18:12:14.830Z,81.70
2019-02-26T18:14:45.472Z,81.20
2019-02-26T18:17:16.672Z,82.80
2019-02-26T18:19:49.567Z,83.30
2019-02-26T18:22:21.754Z,82.50
2019-02-26T18:24:52.403Z,81.50
2019-02-26T18:27:23.219Z,83.20
2019-02-26T18:29:53.986Z,84.10
2019-02-26T18:32:24.797Z,84.10
2019-02-26T18:34:55.528Z,84.40
2019-02-26T18:37:26.383Z,84.80
2019-02-26T18:39:57.211Z,83.00
2019-02-26T18:42:27.924Z,84.80
2019-02-26T18:44:58.687Z,83.20
2019-02-26T18:47:30.471Z,84.50
2019-02-26T18:50:01.272Z,87.80
2019-02-26T18:52:32.296Z,88.90
2019-02-26T18:55:03.047Z,88.40
2019-02-26T18:57:35.167Z,86.30
2019-02-26T19:00:06.878Z,85.60
2019-02-26T19:02:39.325Z,88.90
2019-02-26T19:05:10.076Z,90.20
2019-02-26T19:07:41.119Z,90.80
2019-02-26T19:10:13.108Z,90.90
2019-02-26T19:12:44.067Z,88.30
2019-02-26T19:15:15.449Z,90.30
2019-02-26T19:17:49.045Z,90.70
2019-02-26T19:20:21.633Z,91.00
2019-02-26T19:22:52.644Z,91.10
2019-02-26T19:25:24.474Z,90.90
2019-02-26T19:27:55.466Z,90.10
2019-02-26T19:30:26.323Z,90.80
2019-02-26T19:32:57.140Z,90.40
2019-02-26T19:35:27.890Z,89.60
2019-02-26T19:37:59.174Z,88.50
2019-02-26T19:40:32.545Z,87.60
2019-02-26T19:43:03.510Z,86.80
2019-02-26T19:45:34.335Z,85.50
2019-02-26T19:48:05.173Z,84.20
2019-02-26T19:50:35.863Z,86.60
2019-02-26T19:53:06.660Z,88.70
2019-02-26T19:55:37.742Z,86.70
2019-02-26T19:58:08.327Z,85.00
2019-02-26T20:00:39.114Z,85.40
2019-02-26T20:03:09.940Z,85.80
2019-02-26T20:05:41.317Z,86.50
2019-02-26T20:08:12.133Z,86.90
2019-02-26T20:10:42.888Z,90.00
2019-02-26T20:13:13.601Z,89.80
2019-02-26T20:15:44.449Z,90.30
2019-02-26T20:18:20.690Z,90.70
2019-02-26T20:20:47.736Z,91.90
2019-02-26T20:23:18.582Z,92.40
2019-02-26T20:25:49.412Z,92.00
2019-02-26T20:28:20.260Z,92.30
2019-02-26T20:30:52.009Z,92.80
2019-02-26T20:33:22.806Z,92.60
2019-02-26T20:35:53.604Z,92.80
2019-02-26T20:38:24.359Z,93.00
2019-02-26T20:40:55.068Z,92.10
2019-02-26T20:43:25.948Z,90.20
2019-02-26T20:45:56.615Z,89.80
2019-02-26T20:48:27.484Z,88.60
2019-02-26T20:50:58.257Z,88.00
2019-02-26T20:53:28.990Z,88.10
2019-02-26T20:55:59.752Z,86.10
2019-02-26T20:58:30.552Z,85.40
2019-02-26T21:01:01.308Z,85.80
2019-02-26T21:03:33.071Z,85.80
2019-02-26T21:06:03.883Z,84.20
2019-02-26T21:08:34.875Z,85.70
2019-02-26T21:11:05.795Z,87.30
2019-02-26T21:13:36.807Z,85.40
2019-02-26T21:16:07.428Z,86.10
2019-02-26T21:18:39.404Z,84.80
2019-02-26T21:21:11.701Z,87.60
2019-02-26T21:23:43.692Z,88.20
2019-02-26T21:26:14.375Z,86.90
2019-02-26T21:28:45.355Z,86.30
2019-02-26T21:31:16.703Z,85.90
2019-02-26T21:33:48.498Z,88.60
2019-02-26T21:41:21.006Z,87.00
2019-02-26T21:43:52.135Z,86.30
2019-02-26T21:46:23.288Z,86.60
2019-02-26T21:48:54.378Z,86.10
2019-02-26T21:51:25.177Z,85.80
2019-02-26T21:53:57.730Z,85.60
2019-02-26T21:56:28.520Z,84.70
2019-02-26T21:58:59.677Z,85.10
2019-02-26T22:01:31.093Z,85.40
2019-02-26T22:04:02.280Z,86.30
2019-02-26T22:06:33.180Z,87.20
2019-02-26T22:09:04.043Z,88.60
2019-02-26T22:11:36.143Z,89.70
2019-02-26T22:14:06.989Z,88.90
2019-02-26T22:16:37.764Z,88.90
2019-02-26T22:19:08.566Z,88.90
2019-02-26T22:21:39.427Z,88.60
2019-02-26T22:24:10.125Z,88.80
2019-02-26T22:26:42.274Z,88.00
2019-02-26T22:34:16.743Z,86.30
2019-02-26T22:36:47.395Z,87.50
2019-02-26T22:39:22.252Z,87.00
2019-02-26T22:41:50.484Z,87.40
2019-02-26T22:44:21.481Z,87.70
2019-02-26T22:46:52.915Z,90.90
2019-02-26T22:49:23.695Z,89.90
2019-02-26T22:56:56.916Z,89.00
2019-02-26T22:59:28.147Z,91.30
2019-02-26T23:01:58.995Z,91.00
2019-02-26T23:04:29.848Z,91.00
2019-02-26T23:07:04.426Z,91.10
2019-02-26T23:09:33.707Z,90.70
2019-02-26T23:12:05.101Z,91.70
2019-02-26T23:14:38.823Z,91.50
2019-02-26T23:17:10.700Z,91.20
2019-02-26T23:19:41.686Z,91.00
2019-02-26T23:22:12.369Z,90.70
2019-02-26T23:24:42.979Z,90.10
2019-02-26T23:27:15.191Z,90.70
2019-02-26T23:29:46.598Z,90.90
2019-02-26T23:32:17.458Z,91.30
2019-02-26T23:35:03.551Z,91.40
2019-02-26T23:37:35.219Z,92.30
2019-02-26T23:40:06.724Z,92.80
2019-02-26T23:42:39.091Z,92.20
2019-02-26T23:45:10.208Z,92.70
2019-02-26T23:47:40.989Z,91.70
2019-02-26T23:50:11.843Z,91.60
2019-02-26T23:52:42.779Z,91.50
2019-02-26T23:55:14.033Z,92.10
2019-02-26T23:57:44.748Z,92.50
